KMNN

Marion Municipal Airport

Marion, Ohio, USA
METAR KMNN 160853Z AUTO 21012KT 10SM OVC047 M01/M05 A3001 RMK AO2 SLP174 60000 T10111050 53004 $
Observed Flight Rules
Dec-16 @ 08:53 UTC (2 hours ago) Visual Flight Rules
Wind Visibility Clouds
210° at 12 knots 10 miles
  • Overcast at 4,700' AGL
Temperatures Readings
Current -1°C / 30°F
Dewpoint -5°C / 23°F
Humidity 75%
Altimeter 30.01" Hg
Pressure 1017.4 hPa
Elevation 301
METAR KMNN 160853Z AUTO 21012KT 10SM OVC047 M01/M05 A3001 RMK AO2 SLP174 60000 T10111050 53004 $
Observed Flight Rules
Dec-16 @ 08:53 UTC
(2 hours ago)
VFR
Wind Visibility
210° at 12 knots 10 miles
Clouds
  • Overcast at 4,700' AGL
Temperature Dewpoint
-1°C / 30°F -5°C / 23°F
Humidity Altimeter Pressure
75% 30.01" Hg 1017.4 hPa